Etusivu
METAR-TAF:

METAR-TAF

Lentoasemat :

Pine River Regional Airport

Pine River, Minnesota, Yhdysvallat

Leveyspiiri: 46-43-30N, Pituuspiiri: 094-23-01W, korkeus merenpinnasta: 395 m

Tämänhetkinen sää

Tämä raportti tehtiin 19 minuuttia sitten, kello 09.55 UTC
Tuuli 3 kn idästä
Lämpötila -11°C
Kosteus 78%
Ilmanpaine 1014 hPa
Näkyvyys: 4.8 km
Pilvistä 2100 ft:n korkeudessa
heikkoa lumisadetta

METAR: KPWC 170955Z AUTO 10003KT 3SM -SN OVC021 M11/M14 A2993 RMK AO2

Aika: 04:14 (10:14 UTC)


TAF: puuttuu

Säähavainnot ja -ennusteet yli 4000 lentoasemalta (METAR- ja TAF-raportit).

Käytössä olevat sääasemat on merkitty karttaan keltaisilla ja punaisilla pisteillä.

Aseta hiiri pisteen päälle nähdäksesi sääaseman nimen.

Klikkaa sitten nähdäksesi säähavainnot ja -ennusteet.

Kartan vaihtaminen: klikkaa mustalla rastilla varustettuja vihreitä pisteitä, niin voit zoomata sisään; viivalla varustettua vihreää pistettä, niin voit zoomata ulos tai vihreitä nuolia, niin pääset viereisille kartoille.


METAR-TAF: